Time;durP1;ratioP1;P1;durP2;ratioP2;P2;SDS_P1;SDS_P2;PMS_P1;PMS_P2;Temp;Humidity;BMP_temperature;BMP_pressure;BME280_temperature;BME280_humidity;BME280_pressure;Samples;Min_cycle;Max_cycle;Signal;HPM_P1;HPM_P2
2021/04/29 00:02:00;;;;;;;8.87;6.23;;;12.40;36.10;;;;;;5034733;28;20645;-50
2021/04/29 00:04:27;;;;;;;7.90;5.57;;;12.50;35.90;;;;;;5037854;28;20218;-49
2021/04/29 00:06:53;;;;;;;8.17;6.17;;;12.60;35.20;;;;;;5037372;28;20287;-49
2021/04/29 00:09:20;;;;;;;10.90;6.30;;;12.70;34.60;;;;;;5032020;28;20208;-49
2021/04/29 00:11:47;;;;;;;8.47;5.57;;;12.50;35.20;;;;;;5033746;28;20235;-50
2021/04/29 00:14:13;;;;;;;8.53;6.10;;;12.30;34.90;;;;;;5034004;28;20631;-49
2021/04/29 00:16:41;;;;;;;9.47;5.67;;;12.20;36.40;;;;;;5034404;28;20261;-49
2021/04/29 00:19:09;;;;;;;10.33;6.20;;;12.00;38.20;;;;;;5035852;28;20311;-49
2021/04/29 00:21:36;;;;;;;8.13;5.23;;;12.00;39.20;;;;;;5030881;28;20666;-49
2021/04/29 00:24:04;;;;;;;8.07;5.90;;;11.90;41.30;;;;;;5033539;28;20318;-49
2021/04/29 00:26:30;;;;;;;8.30;5.03;;;11.80;42.50;;;;;;5036909;28;20218;-49
2021/04/29 00:28:57;;;;;;;9.13;6.53;;;11.80;41.20;;;;;;5036062;28;20250;-49
2021/04/29 00:31:23;;;;;;;9.13;5.70;;;11.70;42.80;;;;;;5031903;28;20330;-49
2021/04/29 00:33:49;;;;;;;8.30;5.87;;;11.80;44.20;;;;;;5031494;28;20239;-49
2021/04/29 00:36:16;;;;;;;9.03;6.27;;;11.80;44.30;;;;;;5036432;28;20213;-49
2021/04/29 00:38:42;;;;;;;9.57;6.33;;;11.70;46.50;;;;;;5034965;28;20663;-50
2021/04/29 00:41:08;;;;;;;9.00;5.73;;;11.80;47.10;;;;;;5035774;28;20251;-49
2021/04/29 00:43:35;;;;;;;9.77;6.07;;;11.70;48.80;;;;;;5030127;28;20260;-49
2021/04/29 00:46:02;;;;;;;9.73;6.40;;;12.00;46.90;;;;;;5033006;28;23316;-49
2021/04/29 00:48:28;;;;;;;11.57;6.03;;;11.90;46.30;;;;;;5038860;28;20692;-49
2021/04/29 00:50:55;;;;;;;7.87;5.97;;;11.80;48.20;;;;;;5035117;28;20348;-50
2021/04/29 00:53:33;;;;;;;8.27;5.87;;;11.90;47.40;;;;;;5038579;28;20225;-49
2021/04/29 00:55:59;;;;;;;8.13;5.80;;;11.90;48.10;;;;;;5032971;28;20213;-49
2021/04/29 00:58:26;;;;;;;9.97;6.33;;;11.80;48.60;;;;;;5033478;28;20243;-50
2021/04/29 01:00:52;;;;;;;9.37;5.87;;;11.90;47.50;;;;;;5035961;28;20256;-49
2021/04/29 01:03:26;;;;;;;7.83;5.87;;;11.60;51.20;;;;;;5032187;28;20231;-50
2021/04/29 01:05:58;;;;;;;8.57;6.20;;;11.40;53.50;;;;;;5033608;28;20219;-50
2021/04/29 01:08:32;;;;;;;8.57;6.50;;;11.50;55.30;;;;;;5034455;28;20905;-49
2021/04/29 01:11:03;;;;;;;10.57;6.57;;;11.50;54.40;;;;;;5037440;28;20316;-50
2021/04/29 01:13:32;;;;;;;8.47;5.80;;;11.40;55.70;;;;;;5034613;28;20206;-50
2021/04/29 01:16:00;;;;;;;9.90;6.80;;;11.70;54.20;;;;;;5035314;28;20236;-50
2021/04/29 01:18:26;;;;;;;10.20;6.13;;;11.80;53.50;;;;;;5033240;28;21477;-49
2021/04/29 01:21:15;;;;;;;8.47;5.93;;;11.90;53.10;;;;;;5036871;28;20684;-50
2021/04/29 01:23:44;;;;;;;9.20;5.90;;;11.90;54.40;;;;;;5034307;28;20234;-50
2021/04/29 01:26:25;;;;;;;7.17;6.07;;;11.80;54.20;;;;;;5032888;28;20199;-49
2021/04/29 01:28:53;;;;;;;11.30;6.13;;;11.60;59.70;;;;;;5033803;28;20190;-50
2021/04/29 01:31:24;;;;;;;9.10;6.77;;;11.60;65.90;;;;;;5036177;28;20207;-49
2021/04/29 01:33:52;;;;;;;9.47;6.53;;;11.70;68.40;;;;;;5031948;28;20254;-49
2021/04/29 01:36:20;;;;;;;9.07;5.97;;;11.70;60.90;;;;;;5034995;28;20595;-50
2021/04/29 01:38:47;;;;;;;9.00;6.07;;;11.80;58.90;;;;;;5033108;28;20262;-49
2021/04/29 01:41:14;;;;;;;6.97;5.37;;;11.90;57.90;;;;;;5030585;28;20297;-49
2021/04/29 01:43:42;;;;;;;9.03;6.93;;;11.90;59.20;;;;;;5038243;28;20704;-49
2021/04/29 01:46:08;;;;;;;8.03;6.50;;;11.90;58.90;;;;;;5030241;28;20236;-49
2021/04/29 01:48:35;;;;;;;9.67;7.17;;;11.90;58.30;;;;;;5038939;28;20194;-50
2021/04/29 01:51:02;;;;;;;7.60;6.10;;;11.90;60.10;;;;;;5034314;28;20231;-49
2021/04/29 01:53:29;;;;;;;10.00;6.47;;;11.80;61.30;;;;;;5032451;28;20219;-49
2021/04/29 01:55:56;;;;;;;10.53;6.30;;;11.70;62.10;;;;;;5026533;28;20732;-49
2021/04/29 01:58:23;;;;;;;10.07;6.67;;;11.60;64.60;;;;;;5032693;28;20279;-50
2021/04/29 02:00:50;;;;;;;11.83;6.20;;;11.40;69.40;;;;;;5031770;28;20310;-49
2021/04/29 02:03:17;;;;;;;9.50;6.30;;;11.40;69.90;;;;;;5029018;28;20211;-49
2021/04/29 02:05:43;;;;;;;9.37;6.97;;;11.50;68.90;;;;;;5032029;28;21297;-50
2021/04/29 02:08:10;;;;;;;10.13;6.50;;;11.70;68.30;;;;;;5035659;28;20198;-50
2021/04/29 02:10:36;;;;;;;10.00;6.70;;;11.40;69.90;;;;;;5034237;28;20253;-49
2021/04/29 02:13:10;;;;;;;11.07;7.50;;;11.50;70.50;;;;;;5034999;28;20210;-49
2021/04/29 02:15:39;;;;;;;11.13;7.07;;;11.50;70.40;;;;;;5031821;28;20329;-50
2021/04/29 02:18:10;;;;;;;10.70;7.47;;;11.60;72.50;;;;;;5028745;28;20262;-49
2021/04/29 02:20:40;;;;;;;9.83;6.97;;;11.50;74.90;;;;;;5032918;28;20255;-49
2021/04/29 02:23:09;;;;;;;9.97;6.67;;;11.40;77.80;;;;;;5032687;28;20198;-49
2021/04/29 02:25:36;;;;;;;12.20;7.60;;;11.50;77.20;;;;;;5036564;28;20222;-49
2021/04/29 02:28:03;;;;;;;9.77;6.90;;;11.40;80.00;;;;;;5030010;28;20306;-50
2021/04/29 02:30:29;;;;;;;14.47;7.83;;;11.50;80.60;;;;;;5031832;28;20584;-49
2021/04/29 02:32:56;;;;;;;10.83;7.47;;;11.60;79.60;;;;;;5031930;28;20623;-50
2021/04/29 02:35:22;;;;;;;10.73;6.93;;;11.60;79.40;;;;;;5033428;28;20230;-50
2021/04/29 02:37:51;;;;;;;11.23;7.50;;;11.60;81.50;;;;;;5034771;28;20232;-50
2021/04/29 02:40:19;;;;;;;11.07;7.07;;;11.50;81.30;;;;;;5032857;28;20199;-50
2021/04/29 02:43:05;;;;;;;12.53;7.57;;;11.30;84.20;;;;;;5033852;28;20723;-49
2021/04/29 02:45:31;;;;;;;10.67;7.40;;;11.40;86.60;;;;;;5035838;28;20297;-49
2021/04/29 02:47:58;;;;;;;10.27;7.33;;;11.20;89.70;;;;;;5028592;28;20204;-49
2021/04/29 02:50:25;;;;;;;10.50;6.97;;;11.00;92.10;;;;;;5033599;28;20227;-49
2021/04/29 02:52:53;;;;;;;8.20;6.90;;;11.00;93.30;;;;;;5033487;28;20253;-49
2021/04/29 02:55:21;;;;;;;10.00;7.10;;;10.90;94.20;;;;;;5029747;28;20787;-49
2021/04/29 02:57:48;;;;;;;10.23;7.23;;;11.00;95.00;;;;;;5033327;28;20605;-50
2021/04/29 03:00:18;;;;;;;9.27;6.67;;;11.00;94.30;;;;;;5031327;28;20271;-49
2021/04/29 03:02:44;;;;;;;8.37;6.30;;;10.80;95.10;;;;;;5035980;28;20269;-49
2021/04/29 03:05:13;;;;;;;9.60;7.07;;;10.70;96.00;;;;;;5030422;28;20246;-50
2021/04/29 03:07:41;;;;;;;11.10;7.47;;;10.70;96.10;;;;;;5033724;28;20326;-49
2021/04/29 03:10:11;;;;;;;11.97;7.73;;;10.60;98.30;;;;;;5038828;28;20199;-49
2021/04/29 03:12:38;;;;;;;10.83;7.20;;;10.60;99.20;;;;;;5039635;28;20561;-49
2021/04/29 03:15:07;;;;;;;12.47;7.37;;;10.50;99.70;;;;;;5037466;28;20216;-49
2021/04/29 03:17:34;;;;;;;10.87;7.40;;;10.70;98.00;;;;;;5039769;28;20257;-50
2021/04/29 03:20:00;;;;;;;10.50;7.20;;;10.60;98.70;;;;;;5034277;28;20653;-49
2021/04/29 03:22:27;;;;;;;10.20;6.77;;;10.80;97.50;;;;;;5035413;28;20730;-50
2021/04/29 03:24:54;;;;;;;10.23;7.97;;;10.90;97.90;;;;;;5030148;28;20240;-49
2021/04/29 03:27:22;;;;;;;11.10;7.27;;;11.00;97.20;;;;;;5039555;28;20218;-49
2021/04/29 03:29:49;;;;;;;11.00;7.23;;;11.00;98.80;;;;;;5035382;28;22013;-49
2021/04/29 03:32:16;;;;;;;10.50;7.87;;;11.00;99.70;;;;;;5037484;28;20236;-49
2021/04/29 03:34:43;;;;;;;11.67;7.60;;;11.00;99.90;;;;;;5034331;28;20257;-49
2021/04/29 03:37:09;;;;;;;13.17;8.67;;;11.00;99.90;;;;;;5030473;28;20204;-49
2021/04/29 03:39:35;;;;;;;11.53;7.90;;;10.90;99.90;;;;;;5036597;28;20251;-49
2021/04/29 03:42:02;;;;;;;9.60;7.77;;;11.00;99.90;;;;;;5035225;28;20311;-49
2021/04/29 03:44:29;;;;;;;10.03;8.00;;;11.10;99.90;;;;;;5035353;28;20226;-50
2021/04/29 03:46:56;;;;;;;11.80;7.90;;;11.10;99.90;;;;;;5036239;28;20242;-49
2021/04/29 03:49:22;;;;;;;10.33;7.80;;;11.10;99.90;;;;;;5036984;28;20260;-49
2021/04/29 03:51:48;;;;;;;12.13;7.87;;;11.00;99.90;;;;;;5034752;28;20498;-49
2021/04/29 03:54:15;;;;;;;14.77;8.50;;;10.90;99.90;;;;;;5038720;28;20291;-49
2021/04/29 03:56:41;;;;;;;13.43;9.60;;;10.90;99.90;;;;;;5038879;28;20199;-50
2021/04/29 03:59:08;;;;;;;15.43;9.73;;;10.90;99.90;;;;;;5033417;28;20636;-49
2021/04/29 04:01:34;;;;;;;10.07;8.20;;;10.80;99.90;;;;;;5036427;28;20239;-49
2021/04/29 04:04:01;;;;;;;16.27;9.07;;;10.80;99.90;;;;;;5035510;28;20209;-49
2021/04/29 04:06:28;;;;;;;12.23;9.07;;;10.80;99.90;;;;;;5038976;28;20246;-49
2021/04/29 04:08:54;;;;;;;11.33;8.70;;;10.80;99.90;;;;;;5037631;28;20254;-49
2021/04/29 04:11:21;;;;;;;12.37;9.23;;;10.60;99.90;;;;;;5037583;28;20230;-50
2021/04/29 04:13:49;;;;;;;15.77;8.93;;;10.60;99.90;;;;;;5039232;28;20242;-49
2021/04/29 04:16:16;;;;;;;13.20;9.07;;;10.60;99.90;;;;;;5040836;28;20245;-50
2021/04/29 04:18:42;;;;;;;15.27;9.60;;;10.60;99.90;;;;;;5034775;28;20325;-50
2021/04/29 04:21:09;;;;;;;16.70;9.27;;;10.60;99.90;;;;;;5035148;28;20206;-49
2021/04/29 04:23:36;;;;;;;14.80;10.77;;;10.60;99.90;;;;;;5022355;28;20781;-49
2021/04/29 04:26:03;;;;;;;11.80;9.03;;;10.60;99.90;;;;;;5034455;28;20679;-49
2021/04/29 04:28:29;;;;;;;17.73;9.97;;;10.40;99.90;;;;;;5034988;28;20326;-49
2021/04/29 04:30:56;;;;;;;12.07;9.53;;;10.20;99.90;;;;;;5037722;28;20192;-49
2021/04/29 04:33:22;;;;;;;13.37;9.67;;;10.20;99.90;;;;;;5035354;28;20207;-50
2021/04/29 04:35:49;;;;;;;14.87;10.20;;;10.30;99.90;;;;;;5032147;28;20202;-49
2021/04/29 04:38:15;;;;;;;14.10;9.80;;;10.40;99.90;;;;;;5030615;28;20287;-49
2021/04/29 04:40:42;;;;;;;15.93;10.83;;;10.40;99.90;;;;;;5033254;28;20601;-49
2021/04/29 04:43:08;;;;;;;15.00;10.40;;;10.40;99.90;;;;;;5039978;28;20280;-50
2021/04/29 04:45:35;;;;;;;14.13;9.33;;;10.40;99.90;;;;;;5032586;28;20243;-49
2021/04/29 04:48:02;;;;;;;12.97;9.80;;;10.40;99.90;;;;;;5032040;28;20222;-48
2021/04/29 04:50:29;;;;;;;16.00;10.43;;;10.20;99.90;;;;;;5030556;28;20187;-49
2021/04/29 04:52:55;;;;;;;15.00;10.10;;;10.20;99.90;;;;;;5031984;28;20188;-49
2021/04/29 04:55:21;;;;;;;14.53;10.80;;;10.10;99.90;;;;;;5034761;28;20211;-50
2021/04/29 04:57:48;;;;;;;14.87;10.87;;;10.20;99.90;;;;;;5033690;28;20236;-49
2021/04/29 05:00:15;;;;;;;13.83;10.17;;;10.10;99.90;;;;;;5035295;28;20304;-49
2021/04/29 05:02:41;;;;;;;15.10;11.63;;;10.20;99.90;;;;;;5035011;28;20534;-50
2021/04/29 05:05:08;;;;;;;20.03;11.23;;;10.40;99.90;;;;;;5035292;28;20219;-49
2021/04/29 05:07:34;;;;;;;14.10;10.80;;;10.30;99.90;;;;;;5032111;28;20250;-49
2021/04/29 05:10:01;;;;;;;17.73;11.07;;;10.30;99.90;;;;;;5030163;28;20562;-49
2021/04/29 05:12:27;;;;;;;16.37;11.27;;;10.40;99.90;;;;;;5031867;28;20619;-50
2021/04/29 05:14:53;;;;;;;16.37;11.13;;;10.50;99.90;;;;;;5033175;28;20206;-49
2021/04/29 05:17:20;;;;;;;15.80;10.70;;;10.70;99.90;;;;;;5036827;28;20202;-49
2021/04/29 05:19:46;;;;;;;20.60;11.27;;;10.70;99.90;;;;;;5033788;28;20220;-49
2021/04/29 05:22:14;;;;;;;13.63;10.93;;;10.60;99.90;;;;;;5032764;28;20292;-49
2021/04/29 05:24:44;;;;;;;15.67;11.33;;;10.70;99.90;;;;;;5032563;28;20322;-50
2021/04/29 05:27:10;;;;;;;17.70;12.37;;;10.80;99.90;;;;;;5034810;28;20295;-50
2021/04/29 05:29:37;;;;;;;19.83;13.03;;;10.90;99.90;;;;;;5034016;28;20300;-50
2021/04/29 05:32:04;;;;;;;22.17;12.80;;;10.90;99.90;;;;;;5034071;28;20365;-49
2021/04/29 05:34:32;;;;;;;18.97;12.20;;;10.70;99.90;;;;;;5031279;28;20246;-50
2021/04/29 05:37:00;;;;;;;18.90;12.50;;;10.60;99.90;;;;;;5036389;28;20214;-50
2021/04/29 05:39:27;;;;;;;19.57;13.20;;;10.80;99.90;;;;;;5026735;28;20207;-50
2021/04/29 05:41:53;;;;;;;16.97;12.23;;;10.90;99.90;;;;;;5032170;28;20206;-49
2021/04/29 05:44:19;;;;;;;15.87;11.40;;;10.80;99.90;;;;;;5035263;28;20299;-49
2021/04/29 05:46:46;;;;;;;16.47;12.40;;;11.00;99.90;;;;;;5033941;28;20661;-50
2021/04/29 05:49:13;;;;;;;16.53;11.93;;;11.00;99.90;;;;;;5036801;28;20192;-51
2021/04/29 05:51:40;;;;;;;17.03;11.87;;;10.90;99.90;;;;;;5032566;28;20227;-50
2021/04/29 05:54:07;;;;;;;19.40;11.93;;;10.90;99.90;;;;;;5034515;28;20203;-50
2021/04/29 05:56:33;;;;;;;17.90;11.87;;;11.10;99.90;;;;;;5033813;28;20569;-50
2021/04/29 05:58:59;;;;;;;17.97;12.20;;;11.10;99.90;;;;;;5026934;28;20586;-49
2021/04/29 06:01:26;;;;;;;19.07;12.70;;;11.00;99.90;;;;;;5029377;28;20270;-49
2021/04/29 06:03:52;;;;;;;20.87;12.67;;;11.30;99.90;;;;;;5031452;28;20556;-49
2021/04/29 06:06:18;;;;;;;16.97;11.33;;;11.40;99.90;;;;;;5032287;28;20239;-50
2021/04/29 06:08:45;;;;;;;17.60;12.00;;;11.40;99.90;;;;;;5031396;28;20269;-50
2021/04/29 06:11:11;;;;;;;18.67;12.10;;;11.50;99.90;;;;;;5034336;28;20325;-50
2021/04/29 06:13:39;;;;;;;17.50;12.37;;;11.60;99.90;;;;;;5029335;28;20234;-49
2021/04/29 06:16:06;;;;;;;16.83;11.20;;;11.40;99.90;;;;;;5034286;28;20214;-49
2021/04/29 06:18:32;;;;;;;16.40;12.30;;;11.20;99.90;;;;;;5032253;28;20327;-49
2021/04/29 06:20:59;;;;;;;19.57;12.33;;;11.40;99.90;;;;;;5032615;28;20760;-49
2021/04/29 06:23:26;;;;;;;17.20;11.97;;;11.30;99.90;;;;;;5031568;28;20211;-49
2021/04/29 06:25:52;;;;;;;18.03;11.80;;;11.50;99.90;;;;;;5038836;28;20344;-50
2021/04/29 06:28:18;;;;;;;21.30;12.77;;;11.50;99.90;;;;;;5035959;28;20229;-49
2021/04/29 06:30:44;;;;;;;15.57;12.73;;;11.60;99.90;;;;;;5036216;28;20199;-49
2021/04/29 06:33:11;;;;;;;16.53;12.40;;;11.60;99.90;;;;;;5032520;28;20203;-49
2021/04/29 06:35:37;;;;;;;19.43;12.37;;;11.60;99.90;;;;;;5031678;28;20202;-49
2021/04/29 06:38:04;;;;;;;21.87;12.70;;;11.60;99.90;;;;;;5034032;28;20671;-50
2021/04/29 06:40:30;;;;;;;16.10;11.07;;;11.70;99.90;;;;;;5028046;28;20232;-50
2021/04/29 06:42:56;;;;;;;17.27;12.33;;;11.40;99.90;;;;;;5032798;28;20203;-49
2021/04/29 06:45:23;;;;;;;16.73;11.07;;;11.40;99.90;;;;;;5034759;28;20251;-50
2021/04/29 06:47:49;;;;;;;23.03;13.17;;;11.20;99.90;;;;;;5035033;28;20283;-49
2021/04/29 06:50:17;;;;;;;17.80;12.67;;;10.90;99.90;;;;;;5036912;28;20210;-49
2021/04/29 06:52:43;;;;;;;18.43;13.17;;;10.80;99.90;;;;;;5035452;28;20203;-49
2021/04/29 06:55:12;;;;;;;15.23;12.10;;;11.00;99.90;;;;;;5038272;28;20611;-49
2021/04/29 06:57:38;;;;;;;16.63;12.87;;;10.80;99.90;;;;;;5036057;28;20237;-49
2021/04/29 07:00:06;;;;;;;19.00;12.83;;;10.80;99.90;;;;;;5033011;28;20314;-50
2021/04/29 07:02:32;;;;;;;19.07;12.53;;;10.70;99.90;;;;;;5033631;28;20235;-49
2021/04/29 07:05:03;;;;;;;17.37;13.43;;;10.50;99.90;;;;;;5032492;28;20262;-50
2021/04/29 07:07:29;;;;;;;18.70;13.80;;;10.40;99.90;;;;;;5047052;28;20234;-50
2021/04/29 07:09:55;;;;;;;18.00;12.90;;;10.20;99.90;;;;;;5035452;28;20264;-48
2021/04/29 07:12:21;;;;;;;19.47;12.83;;;10.10;99.90;;;;;;5037155;28;20281;-49
2021/04/29 07:14:48;;;;;;;19.03;13.17;;;10.20;99.90;;;;;;5032683;28;20310;-49
2021/04/29 07:17:14;;;;;;;19.37;13.03;;;10.10;99.90;;;;;;5029650;28;20283;-49
2021/04/29 07:19:41;;;;;;;20.03;14.00;;;10.10;99.90;;;;;;5034188;28;20261;-49
2021/04/29 07:22:07;;;;;;;25.27;13.67;;;10.10;99.90;;;;;;5045002;28;20287;-50
2021/04/29 07:24:35;;;;;;;22.30;14.03;;;10.10;99.90;;;;;;5032003;28;20322;-49
2021/04/29 07:27:03;;;;;;;21.93;13.70;;;10.20;99.90;;;;;;5044299;28;20299;-49
2021/04/29 07:29:32;;;;;;;16.73;12.37;;;10.10;99.90;;;;;;5036409;28;20226;-49
2021/04/29 07:32:00;;;;;;;18.83;13.20;;;10.20;99.90;;;;;;5035442;28;20217;-49
2021/04/29 07:34:28;;;;;;;21.03;14.20;;;10.20;99.90;;;;;;5043269;28;20199;-49
2021/04/29 07:36:56;;;;;;;18.00;12.80;;;10.20;99.90;;;;;;5038757;28;20260;-49
2021/04/29 07:39:22;;;;;;;18.93;13.23;;;10.20;99.90;;;;;;5039738;28;20245;-49
2021/04/29 07:41:49;;;;;;;18.77;13.57;;;10.30;99.90;;;;;;5046670;28;20198;-49
2021/04/29 07:44:16;;;;;;;20.03;14.43;;;10.40;99.90;;;;;;5033217;28;20253;-49
2021/04/29 07:46:43;;;;;;;16.87;13.17;;;10.20;99.90;;;;;;5033269;28;20206;-49
2021/04/29 07:49:09;;;;;;;20.50;13.30;;;10.40;99.90;;;;;;5038276;28;20213;-50
2021/04/29 07:51:36;;;;;;;18.00;12.77;;;10.50;99.90;;;;;;5033428;28;20249;-49
2021/04/29 07:54:04;;;;;;;17.23;11.83;;;10.70;99.90;;;;;;5038057;28;20278;-50
2021/04/29 07:56:31;;;;;;;17.03;12.37;;;10.80;99.90;;;;;;5020929;28;20547;-50
2021/04/29 07:58:57;;;;;;;21.30;12.73;;;10.80;99.90;;;;;;5039734;28;20203;-49
2021/04/29 08:01:23;;;;;;;15.30;11.70;;;10.80;99.90;;;;;;5032847;28;20240;-49
2021/04/29 08:03:50;;;;;;;16.93;12.00;;;10.90;99.90;;;;;;5040088;28;20214;-49
2021/04/29 08:06:16;;;;;;;16.70;11.10;;;10.80;99.90;;;;;;5039069;28;20261;-51
2021/04/29 08:08:43;;;;;;;14.83;10.97;;;10.60;99.90;;;;;;5040726;28;20196;-50
2021/04/29 08:11:14;;;;;;;16.30;11.47;;;10.50;99.90;;;;;;5040888;28;20195;-52
2021/04/29 08:13:42;;;;;;;14.87;11.07;;;10.50;99.90;;;;;;5034270;28;20562;-51
2021/04/29 08:16:09;;;;;;;15.50;10.60;;;10.60;99.90;;;;;;5038148;28;20265;-50
2021/04/29 08:18:35;;;;;;;15.03;10.77;;;10.90;99.90;;;;;;5039679;28;20268;-50
2021/04/29 08:21:03;;;;;;;18.97;11.70;;;10.60;99.90;;;;;;5031196;28;20573;-50
2021/04/29 08:23:30;;;;;;;17.97;11.63;;;10.70;99.90;;;;;;5035613;28;20204;-51
2021/04/29 08:25:57;;;;;;;20.10;11.77;;;10.80;99.90;;;;;;5034290;28;20228;-50
2021/04/29 08:28:23;;;;;;;23.03;11.23;;;10.90;99.90;;;;;;5042314;28;20261;-51
2021/04/29 08:30:50;;;;;;;21.37;12.20;;;11.00;99.90;;;;;;5037818;28;20201;-51
2021/04/29 08:33:16;;;;;;;18.13;11.43;;;11.10;99.90;;;;;;5031643;28;20214;-50
2021/04/29 08:35:43;;;;;;;16.23;10.47;;;11.10;99.90;;;;;;5038851;28;20214;-50
2021/04/29 08:38:09;;;;;;;15.23;10.13;;;11.00;99.90;;;;;;5030368;28;20211;-50
2021/04/29 08:40:36;;;;;;;14.70;10.37;;;11.10;99.90;;;;;;5033263;28;20230;-50
2021/04/29 08:43:02;;;;;;;15.17;10.47;;;11.00;99.90;;;;;;5035853;28;20562;-50
2021/04/29 08:45:29;;;;;;;15.67;11.07;;;10.80;99.90;;;;;;5033713;28;20273;-51
2021/04/29 08:47:56;;;;;;;17.07;10.50;;;10.70;99.90;;;;;;5035933;28;20198;-50
2021/04/29 08:50:25;;;;;;;19.60;12.70;;;10.90;99.90;;;;;;5029453;28;20536;-50
2021/04/29 08:52:52;;;;;;;17.17;11.17;;;10.70;99.90;;;;;;5036299;28;20202;-51
2021/04/29 08:55:23;;;;;;;14.67;10.30;;;10.80;99.90;;;;;;5029404;28;20617;-50
2021/04/29 08:57:55;;;;;;;17.47;11.30;;;10.80;99.90;;;;;;5033332;28;20199;-51
2021/04/29 09:00:23;;;;;;;14.67;11.23;;;10.70;99.90;;;;;;5026640;28;20211;-51
2021/04/29 09:02:50;;;;;;;16.33;10.97;;;10.80;99.90;;;;;;5037268;28;20207;-51
2021/04/29 09:05:23;;;;;;;12.27;9.90;;;11.00;99.90;;;;;;5036075;28;20886;-50
2021/04/29 09:07:55;;;;;;;15.03;10.50;;;11.00;99.90;;;;;;5036670;28;20704;-50
2021/04/29 09:10:23;;;;;;;16.40;10.77;;;11.10;99.90;;;;;;5035383;28;20333;-50
2021/04/29 09:12:50;;;;;;;18.77;10.83;;;11.10;99.90;;;;;;5035619;28;20596;-50
2021/04/29 09:15:26;;;;;;;13.90;9.77;;;11.10;99.90;;;;;;5034617;28;20214;-50
2021/04/29 09:18:14;;;;;;;14.33;10.83;;;11.10;99.90;;;;;;5034394;28;20585;-50
2021/04/29 09:20:55;;;;;;;14.97;10.23;;;11.00;99.90;;;;;;5034240;28;20219;-51
2021/04/29 09:23:24;;;;;;;15.23;9.13;;;10.90;99.90;;;;;;5032914;28;20241;-49
2021/04/29 09:25:59;;;;;;;17.63;9.90;;;10.80;99.90;;;;;;5034390;28;20234;-50
2021/04/29 09:28:38;;;;;;;13.97;9.97;;;10.90;99.90;;;;;;5037725;28;20672;-49
2021/04/29 09:31:13;;;;;;;13.63;9.73;;;10.70;99.90;;;;;;5034836;28;20295;-52
2021/04/29 09:33:51;;;;;;;14.37;10.77;;;10.80;99.90;;;;;;5033195;28;20298;-50
2021/04/29 09:36:36;;;;;;;14.23;10.33;;;11.10;99.90;;;;;;5041270;28;20229;-52
2021/04/29 09:39:02;;;;;;;16.17;10.80;;;11.10;99.90;;;;;;5034943;28;20209;-50
2021/04/29 09:41:33;;;;;;;14.60;10.50;;;11.00;99.90;;;;;;5040711;28;20526;-58
2021/04/29 09:44:08;;;;;;;13.30;10.17;;;10.70;99.90;;;;;;5032930;28;20203;-53
2021/04/29 09:46:42;;;;;;;17.83;11.00;;;10.50;99.90;;;;;;5038082;28;20223;-52
2021/04/29 09:49:17;;;;;;;17.77;11.13;;;10.30;99.90;;;;;;5041565;28;20623;-60
2021/04/29 09:51:44;;;;;;;14.50;10.13;;;10.20;99.90;;;;;;5042104;28;20195;-60
2021/04/29 09:54:10;;;;;;;12.43;9.73;;;9.90;99.90;;;;;;5040324;28;20205;-60
2021/04/29 09:56:38;;;;;;;14.83;10.10;;;9.80;99.90;;;;;;5037839;28;20207;-60
2021/04/29 09:59:04;;;;;;;14.47;9.60;;;9.80;99.90;;;;;;5039958;28;20256;-60
2021/04/29 10:01:31;;;;;;;16.60;10.40;;;9.70;99.90;;;;;;5028602;28;20207;-50
2021/04/29 10:03:58;;;;;;;15.20;9.40;;;9.60;99.90;;;;;;5038683;28;20704;-50
2021/04/29 10:06:25;;;;;;;17.17;9.97;;;9.60;99.90;;;;;;5041882;28;20707;-50
2021/04/29 10:08:51;;;;;;;12.33;10.10;;;9.60;99.90;;;;;;5034380;28;20284;-50
2021/04/29 10:11:23;;;;;;;14.33;9.67;;;9.60;99.90;;;;;;5028646;28;20204;-50
2021/04/29 10:13:59;;;;;;;21.20;10.27;;;9.60;99.90;;;;;;5035222;28;20223;-51
2021/04/29 10:16:28;;;;;;;13.73;10.17;;;9.60;99.90;;;;;;5031480;28;20233;-50
2021/04/29 10:18:56;;;;;;;15.90;10.73;;;9.40;99.90;;;;;;5033125;28;20239;-49
2021/04/29 10:21:23;;;;;;;15.13;10.50;;;9.30;99.90;;;;;;5030081;28;20269;-51
2021/04/29 10:23:50;;;;;;;14.20;10.23;;;9.20;99.90;;;;;;5030831;28;20613;-50
2021/04/29 10:26:31;;;;;;;17.30;10.17;;;9.20;99.90;;;;;;5031299;28;20214;-51
2021/04/29 10:29:03;;;;;;;14.47;9.77;;;9.20;99.90;;;;;;5034543;28;20208;-49
2021/04/29 10:31:31;;;;;;;15.90;8.97;;;9.00;99.90;;;;;;5036232;28;20759;-50
2021/04/29 10:34:00;;;;;;;15.10;10.00;;;9.10;99.90;;;;;;5034390;28;20254;-50
2021/04/29 10:36:42;;;;;;;14.97;10.57;;;9.00;99.90;;;;;;5034628;28;20214;-50
2021/04/29 10:39:11;;;;;;;16.37;10.57;;;9.00;99.90;;;;;;5040011;28;20259;-50
2021/04/29 10:41:38;;;;;;;16.07;10.47;;;9.20;99.90;;;;;;5033241;28;20271;-50
2021/04/29 10:44:12;;;;;;;14.07;10.20;;;9.10;99.90;;;;;;5036133;28;20205;-50
2021/04/29 10:46:39;;;;;;;11.40;10.00;;;9.10;99.90;;;;;;5041025;28;20564;-50
2021/04/29 10:49:08;;;;;;;15.13;10.33;;;9.10;99.90;;;;;;5029710;28;20310;-50
2021/04/29 10:51:38;;;;;;;17.23;10.13;;;8.90;99.90;;;;;;5035764;28;20238;-50
2021/04/29 10:54:19;;;;;;;14.17;10.20;;;9.20;99.90;;;;;;5027050;28;20220;-50
2021/04/29 10:57:08;;;;;;;14.33;9.73;;;9.20;99.90;;;;;;5028239;28;20254;-51
2021/04/29 11:00:05;;;;;;;14.50;10.20;;;9.00;99.90;;;;;;5028259;28;20210;-48
2021/04/29 11:02:35;;;;;;;14.27;10.03;;;9.00;99.90;;;;;;5025980;28;20194;-51
2021/04/29 11:05:19;;;;;;;13.07;10.13;;;9.00;99.90;;;;;;5028965;28;20225;-49
2021/04/29 11:07:47;;;;;;;14.97;10.07;;;9.10;99.90;;;;;;5030835;28;20241;-49
2021/04/29 11:10:15;;;;;;;14.33;10.50;;;9.10;99.90;;;;;;5028808;28;20252;-49
2021/04/29 11:12:43;;;;;;;13.03;9.77;;;9.10;99.90;;;;;;5033722;28;20201;-50
2021/04/29 11:15:26;;;;;;;12.60;8.57;;;9.00;99.90;;;;;;5040059;28;20286;-51
2021/04/29 11:17:59;;;;;;;12.23;8.90;;;8.80;99.90;;;;;;5037918;28;20292;-50
2021/04/29 11:20:25;;;;;;;13.23;9.07;;;8.80;99.90;;;;;;5031026;28;20202;-50
2021/04/29 11:22:56;;;;;;;15.47;10.10;;;9.00;99.90;;;;;;5035170;28;20224;-50
2021/04/29 11:25:23;;;;;;;11.40;9.03;;;8.90;99.90;;;;;;5034199;28;20279;-51
2021/04/29 11:27:54;;;;;;;15.70;8.97;;;8.90;99.90;;;;;;5036852;28;20287;-49
2021/04/29 11:30:21;;;;;;;11.20;8.50;;;8.80;99.90;;;;;;5036226;28;20604;-50
2021/04/29 11:32:59;;;;;;;13.57;10.03;;;8.70;99.90;;;;;;5043132;28;20233;-50
2021/04/29 11:35:37;;;;;;;10.40;9.30;;;8.70;99.90;;;;;;5037304;28;20728;-51
2021/04/29 11:38:06;;;;;;;11.63;8.63;;;8.80;99.90;;;;;;5034202;28;20235;-50
2021/04/29 11:40:34;;;;;;;11.10;8.67;;;8.50;99.90;;;;;;5032141;28;20229;-51
2021/04/29 11:43:02;;;;;;;13.93;9.00;;;8.60;99.90;;;;;;5034152;28;20235;-49
2021/04/29 11:45:34;;;;;;;9.07;8.17;;;8.50;99.90;;;;;;5030083;28;20219;-49
2021/04/29 11:48:05;;;;;;;10.90;8.57;;;8.50;99.90;;;;;;5033864;28;20194;-50
2021/04/29 11:50:34;;;;;;;12.03;7.50;;;8.50;99.90;;;;;;5036215;28;20206;-50
2021/04/29 11:53:15;;;;;;;13.17;8.70;;;8.50;99.90;;;;;;5036262;28;20197;-48
2021/04/29 11:55:44;;;;;;;10.23;8.63;;;8.70;99.90;;;;;;5037928;28;20287;-50
2021/04/29 11:58:14;;;;;;;9.10;7.53;;;8.70;99.90;;;;;;5035131;28;20254;-49
2021/04/29 12:00:43;;;;;;;11.63;7.90;;;8.50;99.90;;;;;;5031241;28;20996;-50
2021/04/29 12:03:11;;;;;;;13.60;8.40;;;8.60;99.90;;;;;;5033313;28;20203;-50
2021/04/29 12:05:49;;;;;;;14.77;8.93;;;8.70;99.90;;;;;;5039632;28;20210;-49
2021/04/29 12:08:35;;;;;;;14.63;9.20;;;8.60;99.90;;;;;;5036873;28;20200;-49
2021/04/29 12:11:06;;;;;;;10.97;8.47;;;8.70;99.90;;;;;;5038683;28;20211;-51
2021/04/29 12:13:43;;;;;;;13.57;9.07;;;8.90;99.90;;;;;;5034024;28;20834;-50
2021/04/29 12:16:33;;;;;;;12.90;8.53;;;8.90;99.90;;;;;;5030252;28;20228;-49
2021/04/29 12:19:01;;;;;;;11.07;8.83;;;8.80;99.90;;;;;;5034036;28;20241;-51
2021/04/29 12:21:28;;;;;;;9.47;8.17;;;8.70;99.90;;;;;;5036141;28;20248;-49
2021/04/29 12:24:08;;;;;;;13.50;8.77;;;8.80;99.90;;;;;;5027623;28;20197;-50
2021/04/29 12:26:40;;;;;;;15.40;10.03;;;8.70;99.90;;;;;;5026782;28;20670;-50
2021/04/29 12:29:08;;;;;;;14.93;8.13;;;8.70;99.90;;;;;;5029203;28;20230;-50
2021/04/29 12:31:36;;;;;;;10.73;8.03;;;8.80;99.90;;;;;;5027205;28;20206;-51
2021/04/29 12:34:16;;;;;;;9.47;7.40;;;8.70;99.90;;;;;;5027293;28;20202;-51
2021/04/29 12:37:01;;;;;;;17.17;9.20;;;8.80;99.90;;;;;;5027807;28;20228;-50
2021/04/29 12:39:32;;;;;;;11.70;7.57;;;8.90;99.90;;;;;;5028930;28;20232;-50
2021/04/29 12:42:05;;;;;;;9.07;7.50;;;8.80;99.90;;;;;;5028692;28;20600;-50
2021/04/29 12:44:42;;;;;;;10.23;7.60;;;8.70;99.90;;;;;;5028905;28;20202;-50